KGGW/GGW METAR and TAF weather

Enter ICAO airport designator
Station Type Date Time Source
KGGW METAR 2021/09/16 10:53 UTC NOAA

KGGW 161053Z AUTO 01010KT 10SM FEW110 12/03 A2978 RMK AO2 SLP080 T01170028


Station Type Date Time Source
KGGW Decoded METAR 2021/09/16 10:53 UTC NOAA

GLASGOW INTERNATIONAL AIRPORT , MT, United States (KGGW) 48-13N 106-37W 693M
Sep 16, 2021 - 06:53 AM EDT / 2021.09.16 1053 UTC
Wind: from the N (010 degrees) at 12 MPH (10 KT):0
Visibility: 10 mile(s):0
Sky conditions: mostly clear
Temperature: 53.1 F (11.7 C)
Dew Point: 37.0 F (2.8 C)
Relative Humidity: 54%
Pressure (altimeter): 29.78 in. Hg (1008 hPa)
ob: KGGW 161053Z AUTO 01010KT 10SM FEW110 12/03 A2978 RMK AO2 SLP080 T01170028
cycle: 11

Station Type Date Time Source
KGGW TAF 2021/09/16 12:27 UTC NOAA

TAF KGGW 161124Z 1612/1712 33008KT P6SM BKN120
FM161800 30018KT P6SM BKN070
FM170500 29008KT P6SM FEW180

Example: see airport list